Terminal Aerodrome Forecast
Issued by NWS

Home | Current Version | Previous Version | Text Only | Print | Product List | Glossary Off
Versions: 1 2 3 4 5 6 7 8 9 10 11 12 13 14 15 16 17 18 19 20 21 22 23 24 25 26

000
FTUS43 KPAH 261549 AAD
TAFCGI
TAF AMD
KCGI 261549Z 2616/2712 20009KT P6SM VCTS OVC021CB
     FM261615 36015G25KT 1SM +TSRA OVC015CB
     FM261800 11010KT 3SM TSRA BKN025CB
     FM262300 18008KT P6SM BKN040=

USA.gov is the U.S. government's official web portal to all federal, state and local government web resources and services.